createdAt,value
2018-07-02T00:00:10.015Z,56.38
2018-07-02T00:02:38.964Z,55.03
2018-07-02T00:05:07.824Z,55.24
2018-07-02T00:07:36.449Z,55.20
2018-07-02T00:10:05.270Z,55.47
2018-07-02T00:12:34.054Z,55.68
2018-07-02T00:15:02.777Z,55.25
2018-07-02T00:17:31.441Z,56.75
2018-07-02T00:20:00.229Z,55.55
2018-07-02T00:22:28.966Z,57.10
2018-07-02T00:24:57.645Z,55.97
2018-07-02T00:27:26.406Z,56.32
2018-07-02T00:29:55.148Z,56.37
2018-07-02T00:32:23.871Z,56.82
2018-07-02T00:34:52.522Z,57.61
2018-07-02T00:37:21.241Z,57.34
2018-07-02T00:39:49.944Z,57.20
2018-07-02T00:42:18.669Z,57.42
2018-07-02T00:44:47.298Z,57.69
2018-07-02T00:47:15.991Z,58.16
2018-07-02T00:49:44.679Z,57.72
2018-07-02T00:52:13.455Z,57.96
2018-07-02T00:54:42.142Z,58.10
2018-07-02T00:57:10.781Z,58.07
2018-07-02T00:59:39.473Z,58.89
2018-07-02T01:02:08.332Z,59.33
2018-07-02T01:04:36.976Z,58.45
2018-07-02T01:07:05.772Z,58.77
2018-07-02T01:09:34.544Z,59.14
2018-07-02T01:12:03.249Z,59.47
2018-07-02T01:14:31.958Z,59.50
2018-07-02T01:17:00.663Z,59.31
2018-07-02T01:19:29.322Z,59.97
2018-07-02T01:21:57.921Z,59.57
2018-07-02T01:24:26.562Z,60.95
2018-07-02T01:26:55.263Z,62.01
2018-07-02T01:29:23.922Z,61.28
2018-07-02T01:31:52.572Z,60.29
2018-07-02T01:34:21.466Z,60.55
2018-07-02T01:36:50.318Z,60.79
2018-07-02T01:39:19.000Z,61.60
2018-07-02T01:41:47.761Z,61.39
2018-07-02T01:44:16.481Z,61.06
2018-07-02T01:46:45.241Z,60.85
2018-07-02T01:49:14.105Z,61.58
2018-07-02T01:51:42.833Z,61.44
2018-07-02T01:54:11.535Z,61.52
2018-07-02T01:56:40.187Z,61.41
2018-07-02T01:59:08.919Z,61.05
2018-07-02T02:01:37.529Z,62.63
2018-07-02T02:04:06.260Z,62.44
2018-07-02T02:06:34.925Z,61.73
2018-07-02T02:09:03.816Z,62.20
2018-07-02T02:11:32.582Z,61.13
2018-07-02T02:14:01.287Z,61.23
2018-07-02T02:16:29.905Z,62.14
2018-07-02T02:18:58.600Z,62.15
2018-07-02T02:21:27.319Z,62.44
2018-07-02T02:23:55.893Z,62.06
2018-07-02T02:26:24.719Z,62.38
2018-07-02T02:28:54.012Z,61.74
2018-07-02T02:31:22.759Z,61.86
2018-07-02T02:33:51.480Z,61.27
2018-07-02T02:36:20.214Z,61.42
2018-07-02T02:38:48.874Z,61.26
2018-07-02T02:41:17.484Z,61.38
2018-07-02T02:43:46.256Z,61.75
2018-07-02T02:46:14.951Z,61.89
2018-07-02T02:48:43.616Z,60.66
2018-07-02T02:51:12.315Z,60.55
2018-07-02T02:53:41.099Z,60.43
2018-07-02T02:56:09.772Z,60.31
2018-07-02T02:58:38.502Z,61.03
2018-07-02T03:01:07.107Z,60.25
2018-07-02T03:03:35.777Z,60.38
2018-07-02T03:06:04.446Z,62.16
2018-07-02T03:08:33.181Z,59.86
2018-07-02T03:11:01.834Z,59.95
2018-07-02T03:13:30.522Z,59.65
2018-07-02T03:15:59.313Z,59.99
2018-07-02T03:18:27.956Z,59.88
2018-07-02T03:20:56.621Z,59.67
2018-07-02T03:23:25.324Z,59.87
2018-07-02T03:25:53.911Z,59.39
2018-07-02T03:28:22.544Z,59.61
2018-07-02T03:30:51.340Z,58.89
2018-07-02T03:33:20.052Z,58.71
2018-07-02T03:35:48.890Z,58.39
2018-07-02T03:38:17.645Z,58.32
2018-07-02T03:40:46.425Z,58.07
2018-07-02T03:43:15.116Z,57.38
2018-07-02T03:45:44.303Z,57.63
2018-07-02T03:48:12.929Z,57.38
2018-07-02T03:50:41.584Z,57.26
2018-07-02T03:53:10.257Z,57.35
2018-07-02T03:55:38.970Z,57.00
2018-07-02T03:58:07.767Z,56.96
2018-07-02T04:00:36.469Z,56.60
2018-07-02T04:03:05.233Z,56.38
2018-07-02T04:05:33.844Z,56.13
2018-07-02T04:08:02.512Z,55.80
2018-07-02T04:10:31.084Z,55.89
2018-07-02T04:12:59.971Z,55.86
2018-07-02T04:15:28.570Z,55.27
2018-07-02T04:17:57.298Z,54.90
2018-07-02T04:20:25.945Z,54.80
2018-07-02T04:22:54.846Z,55.18
2018-07-02T04:25:23.674Z,55.02
2018-07-02T04:27:52.318Z,54.78
2018-07-02T04:30:21.007Z,54.91
2018-07-02T04:32:49.722Z,54.93
2018-07-02T04:35:18.519Z,54.79
2018-07-02T04:37:47.254Z,54.40
2018-07-02T04:40:15.887Z,54.66
2018-07-02T04:42:44.596Z,54.40
2018-07-02T04:45:13.468Z,54.30
2018-07-02T04:47:42.184Z,53.99
2018-07-02T04:50:10.937Z,53.64
2018-07-02T04:52:39.701Z,53.14
2018-07-02T04:55:08.325Z,51.86
2018-07-02T04:57:37.014Z,51.47
2018-07-02T05:00:06.222Z,53.31
2018-07-02T05:02:34.921Z,52.74
2018-07-02T05:05:03.692Z,53.15
2018-07-02T05:07:32.310Z,52.76
2018-07-02T05:10:00.907Z,52.05
2018-07-02T05:12:29.604Z,51.67
2018-07-02T05:14:58.206Z,51.26
2018-07-02T05:17:26.778Z,50.87
2018-07-02T05:19:55.501Z,50.52
2018-07-02T05:22:24.148Z,50.71
2018-07-02T05:24:52.833Z,49.69
2018-07-02T05:27:21.463Z,50.19
2018-07-02T05:29:50.330Z,48.34
2018-07-02T05:32:18.900Z,47.73
2018-07-02T05:34:47.568Z,47.42
2018-07-02T05:37:16.188Z,46.87
2018-07-02T05:39:44.790Z,45.87
2018-07-02T05:42:13.443Z,45.96
2018-07-02T05:44:42.006Z,45.96
2018-07-02T05:47:10.722Z,45.69
2018-07-02T05:49:39.400Z,43.96
2018-07-02T05:52:08.125Z,37.29
2018-07-02T05:54:36.830Z,39.97
2018-07-02T05:57:05.548Z,39.68
2018-07-02T05:59:34.219Z,39.99
2018-07-02T06:02:02.936Z,38.33
2018-07-02T06:04:31.702Z,38.80
2018-07-02T06:07:00.209Z,39.87
2018-07-02T06:09:28.796Z,39.28
2018-07-02T06:11:57.490Z,38.98
2018-07-02T06:14:26.127Z,37.69
2018-07-02T06:16:54.794Z,37.66
2018-07-02T06:19:23.643Z,38.61
2018-07-02T06:21:52.225Z,38.05
2018-07-02T06:24:20.874Z,37.76
2018-07-02T06:26:49.488Z,38.52
2018-07-02T06:29:18.219Z,38.16
2018-07-02T06:31:46.918Z,38.63
2018-07-02T06:34:15.887Z,37.56
2018-07-02T06:36:44.609Z,34.76
2018-07-02T06:39:13.394Z,36.41
2018-07-02T06:41:42.067Z,35.95
2018-07-02T06:44:10.616Z,35.06
2018-07-02T06:46:39.389Z,35.19
2018-07-02T06:49:07.997Z,35.67
2018-07-02T06:51:36.654Z,34.85
2018-07-02T06:54:05.517Z,35.17
2018-07-02T06:56:34.188Z,35.68
2018-07-02T06:59:02.847Z,35.30
2018-07-02T07:01:31.583Z,34.58
2018-07-02T07:04:00.191Z,34.76
2018-07-02T07:06:28.828Z,33.22
2018-07-02T07:08:57.464Z,36.40
2018-07-02T07:11:27.051Z,36.66
2018-07-02T07:13:55.734Z,34.10
2018-07-02T07:16:24.389Z,32.75
2018-07-02T07:18:53.062Z,36.34
2018-07-02T07:21:21.760Z,33.86
2018-07-02T07:23:50.424Z,33.44
2018-07-02T07:26:19.024Z,34.72
2018-07-02T07:28:47.621Z,33.15
2018-07-02T07:31:16.643Z,32.10
2018-07-02T07:33:45.328Z,33.47
2018-07-02T07:36:13.972Z,32.84
2018-07-02T07:38:42.715Z,32.93
2018-07-02T07:41:11.295Z,33.30
2018-07-02T07:43:39.886Z,32.47
2018-07-02T07:46:08.645Z,33.46
2018-07-02T07:48:37.282Z,33.03
2018-07-02T07:51:06.084Z,35.12
2018-07-02T07:53:34.791Z,35.33
2018-07-02T07:56:03.503Z,32.53
2018-07-02T07:58:32.259Z,33.00
2018-07-02T08:01:00.932Z,32.58
2018-07-02T08:03:29.552Z,33.78
2018-07-02T08:05:58.207Z,32.65
2018-07-02T08:08:26.888Z,34.18
2018-07-02T08:10:55.541Z,34.49
2018-07-02T08:13:24.224Z,34.76
2018-07-02T08:15:52.843Z,33.95
2018-07-02T08:18:21.521Z,34.34
2018-07-02T08:20:50.263Z,33.52
2018-07-02T08:23:18.964Z,35.05
2018-07-02T08:25:48.601Z,34.78
2018-07-02T08:28:17.461Z,34.62
2018-07-02T08:30:46.253Z,37.00
2018-07-02T08:33:15.342Z,35.60
2018-07-02T08:35:44.049Z,35.06
2018-07-02T08:38:12.683Z,36.06
2018-07-02T08:40:41.391Z,34.96
2018-07-02T08:43:10.209Z,35.76
2018-07-02T08:45:39.036Z,35.50
2018-07-02T08:48:07.659Z,36.15
2018-07-02T08:50:36.311Z,35.91
2018-07-02T08:53:04.878Z,37.38
2018-07-02T08:55:33.535Z,37.76
2018-07-02T08:58:02.554Z,37.42
2018-07-02T09:00:31.220Z,38.09
2018-07-02T09:03:00.034Z,38.52
2018-07-02T09:05:28.788Z,38.04
2018-07-02T09:07:57.480Z,38.18
2018-07-02T09:10:26.107Z,36.95
2018-07-02T09:12:54.702Z,38.16
2018-07-02T09:15:23.371Z,37.40
2018-07-02T09:17:52.002Z,38.06
2018-07-02T09:20:20.842Z,38.88
2018-07-02T09:22:49.546Z,38.95
2018-07-02T09:25:18.284Z,39.08
2018-07-02T09:27:47.023Z,38.40
2018-07-02T09:30:15.680Z,39.47
2018-07-02T09:32:44.418Z,37.24
2018-07-02T09:35:13.170Z,39.22
2018-07-02T09:37:41.836Z,35.51
2018-07-02T09:40:10.662Z,35.56
2018-07-02T09:42:39.237Z,37.25
2018-07-02T09:45:07.819Z,35.56
2018-07-02T09:47:36.387Z,36.19
2018-07-02T09:50:05.173Z,34.31
2018-07-02T09:52:33.953Z,34.61
2018-07-02T09:55:02.547Z,33.90
2018-07-02T09:57:31.260Z,34.44
2018-07-02T10:00:00.068Z,35.23
2018-07-02T10:02:28.954Z,32.94
2018-07-02T10:04:57.553Z,33.50
2018-07-02T10:07:26.407Z,33.02
2018-07-02T10:09:55.137Z,31.93
2018-07-02T10:12:23.807Z,32.54
2018-07-02T10:14:52.495Z,31.61
2018-07-02T10:17:21.306Z,33.80
2018-07-02T10:19:49.892Z,31.82
2018-07-02T10:22:18.566Z,30.97
2018-07-02T10:24:47.307Z,31.83
2018-07-02T10:27:16.027Z,29.25
2018-07-02T10:29:44.679Z,31.56
2018-07-02T10:32:13.303Z,31.81
2018-07-02T10:34:41.894Z,31.50
2018-07-02T10:37:10.618Z,30.04
2018-07-02T10:39:39.299Z,32.23
2018-07-02T10:42:07.914Z,32.03
2018-07-02T10:44:36.717Z,31.33
2018-07-02T10:47:05.561Z,30.94
2018-07-02T10:49:34.213Z,30.74
2018-07-02T10:52:02.935Z,30.56
2018-07-02T10:54:31.629Z,30.06
2018-07-02T10:57:00.263Z,30.56
2018-07-02T10:59:28.969Z,33.03
2018-07-02T11:01:57.673Z,32.35
2018-07-02T11:04:26.406Z,31.58
2018-07-02T11:06:55.068Z,29.26
2018-07-02T11:09:23.749Z,29.35
2018-07-02T11:11:52.407Z,29.56
2018-07-02T11:14:21.090Z,30.96
2018-07-02T11:16:49.710Z,29.98
2018-07-02T11:19:18.321Z,30.93
2018-07-02T11:21:47.077Z,29.97
2018-07-02T11:24:15.722Z,29.43
2018-07-02T11:26:44.319Z,28.76
2018-07-02T11:29:13.112Z,27.98
2018-07-02T11:31:41.741Z,27.78
2018-07-02T11:34:10.401Z,29.70
2018-07-02T11:36:39.022Z,29.37
2018-07-02T11:39:09.575Z,28.76
2018-07-02T11:41:38.309Z,29.07
2018-07-02T11:44:07.139Z,26.29
2018-07-02T11:46:35.965Z,26.40
2018-07-02T11:49:04.690Z,28.51
2018-07-02T11:51:33.340Z,26.51
2018-07-02T11:54:02.071Z,27.24
2018-07-02T11:56:30.816Z,27.48
2018-07-02T11:58:59.549Z,25.16
2018-07-02T12:01:28.224Z,25.27
2018-07-02T12:03:56.859Z,25.64
2018-07-02T12:06:25.552Z,24.40
2018-07-02T12:08:54.164Z,25.71
2018-07-02T12:11:22.758Z,26.26
2018-07-02T12:13:51.546Z,26.06
2018-07-02T12:16:20.214Z,28.28
2018-07-02T12:18:48.896Z,26.37
2018-07-02T12:21:17.829Z,27.15
2018-07-02T12:23:46.498Z,26.16
2018-07-02T12:26:15.213Z,27.49
2018-07-02T12:28:43.816Z,26.37
2018-07-02T12:31:12.411Z,25.46
2018-07-02T12:33:41.081Z,25.78
2018-07-02T12:36:09.926Z,26.08
2018-07-02T12:38:38.608Z,26.25
2018-07-02T12:41:07.516Z,28.19
2018-07-02T12:43:36.544Z,25.40
2018-07-02T12:46:05.325Z,26.83
2018-07-02T12:48:33.970Z,26.83
2018-07-02T12:51:02.664Z,26.04
2018-07-02T12:53:31.390Z,27.45
2018-07-02T12:56:00.281Z,27.18
2018-07-02T12:58:28.834Z,26.95
2018-07-02T13:00:57.469Z,25.06
2018-07-02T13:03:26.197Z,26.06
2018-07-02T13:05:54.811Z,26.52
2018-07-02T13:08:23.468Z,25.66
2018-07-02T13:10:52.271Z,26.68
2018-07-02T13:13:20.916Z,25.18
2018-07-02T13:15:49.566Z,25.27
2018-07-02T13:18:18.247Z,23.61
2018-07-02T13:20:46.940Z,23.38
2018-07-02T13:23:15.650Z,21.10
2018-07-02T13:25:44.390Z,18.92
2018-07-02T13:28:13.073Z,17.77
2018-07-02T13:30:41.724Z,15.21
2018-07-02T13:33:10.401Z,14.97
2018-07-02T13:35:39.001Z,15.18
2018-07-02T13:38:07.597Z,14.26
2018-07-02T13:40:36.265Z,14.54
2018-07-02T13:43:05.111Z,14.81
2018-07-02T13:45:33.771Z,13.90
2018-07-02T13:48:02.416Z,13.28
2018-07-02T13:50:31.109Z,13.31
2018-07-02T13:52:59.748Z,14.27
2018-07-02T13:55:28.411Z,15.32
2018-07-02T13:57:57.147Z,15.69
2018-07-02T14:00:25.907Z,15.71
2018-07-02T14:02:54.472Z,16.97
2018-07-02T14:05:23.112Z,17.96
2018-07-02T14:07:51.797Z,18.50
2018-07-02T14:10:20.431Z,20.09
2018-07-02T14:12:49.103Z,20.53
2018-07-02T14:15:17.903Z,21.33
2018-07-02T14:17:46.535Z,22.76
2018-07-02T14:20:15.172Z,24.49
2018-07-02T14:22:44.015Z,23.86
2018-07-02T14:25:12.687Z,24.28
2018-07-02T14:27:41.379Z,23.81
2018-07-02T14:30:10.067Z,24.34
2018-07-02T14:32:38.754Z,23.74
2018-07-02T14:35:07.431Z,24.19
2018-07-02T14:37:36.158Z,24.28
2018-07-02T14:40:05.054Z,23.67
2018-07-02T14:42:33.668Z,23.36
2018-07-02T14:45:02.690Z,22.29
2018-07-02T14:47:31.256Z,22.57
2018-07-02T14:49:59.957Z,24.01
2018-07-02T14:52:29.412Z,23.14
2018-07-02T14:54:58.258Z,22.99
2018-07-02T14:57:26.931Z,22.55
2018-07-02T14:59:55.581Z,20.74
2018-07-02T15:02:24.291Z,20.18
2018-07-02T15:04:53.178Z,21.07
2018-07-02T15:07:22.045Z,20.00
2018-07-02T15:09:51.229Z,18.08
2018-07-02T15:12:20.748Z,18.55
2018-07-02T15:14:49.963Z,18.07
2018-07-02T15:17:19.066Z,18.84
2018-07-02T15:19:48.298Z,18.55
2018-07-02T15:22:16.946Z,19.65
2018-07-02T15:24:45.687Z,21.16
2018-07-02T15:27:14.362Z,22.66
2018-07-02T15:29:43.465Z,24.20
2018-07-02T15:32:12.525Z,25.50
2018-07-02T15:34:41.792Z,26.31
2018-07-02T15:37:10.722Z,27.26
2018-07-02T15:39:40.304Z,28.43
2018-07-02T15:42:08.905Z,28.56
2018-07-02T15:44:37.756Z,28.55
2018-07-02T15:47:06.374Z,29.30
2018-07-02T15:49:35.134Z,28.64
2018-07-02T15:52:03.838Z,29.66
2018-07-02T15:54:32.485Z,29.37
2018-07-02T15:57:01.198Z,30.55
2018-07-02T15:59:29.945Z,31.59
2018-07-02T16:01:58.728Z,29.55
2018-07-02T16:04:27.719Z,30.31
2018-07-02T16:06:56.882Z,30.18
2018-07-02T16:09:26.185Z,29.78
2018-07-02T16:11:55.729Z,29.91
2018-07-02T16:14:25.279Z,29.89
2018-07-02T16:16:54.815Z,30.03
2018-07-02T16:19:23.982Z,30.64
2018-07-02T16:21:52.693Z,30.82
2018-07-02T16:24:21.363Z,31.35
2018-07-02T16:26:50.060Z,31.00
2018-07-02T16:29:18.927Z,31.13
2018-07-02T16:31:48.096Z,32.26
2018-07-02T16:34:17.288Z,31.04
2018-07-02T16:36:46.436Z,31.18
2018-07-02T16:39:15.678Z,31.04
2018-07-02T16:41:44.537Z,31.59
2018-07-02T16:44:14.909Z,31.29
2018-07-02T16:46:43.493Z,31.16
2018-07-02T16:49:12.201Z,31.39
2018-07-02T16:51:40.882Z,31.17
2018-07-02T16:54:09.765Z,30.67
2018-07-02T16:56:39.404Z,30.96
2018-07-02T16:59:08.739Z,31.01
2018-07-02T17:01:37.875Z,30.68
2018-07-02T17:04:08.375Z,30.92
2018-07-02T17:06:37.559Z,30.35
2018-07-02T17:09:10.002Z,30.75
2018-07-02T17:11:39.802Z,31.11
2018-07-02T17:14:09.217Z,30.29
2018-07-02T17:16:38.939Z,30.25
2018-07-02T17:19:08.215Z,30.10
2018-07-02T17:21:37.166Z,30.14
2018-07-02T17:24:06.470Z,30.08
2018-07-02T17:26:35.126Z,30.75
2018-07-02T17:29:03.834Z,30.59
2018-07-02T17:31:32.503Z,30.57
2018-07-02T17:34:01.255Z,31.09
2018-07-02T17:36:29.910Z,32.20
2018-07-02T17:38:58.597Z,30.90
2018-07-02T17:41:27.242Z,31.32
2018-07-02T17:43:55.939Z,31.33
2018-07-02T17:46:24.609Z,31.15
2018-07-02T17:48:53.164Z,31.90
2018-07-02T17:51:21.867Z,31.94
2018-07-02T17:53:50.441Z,32.00
2018-07-02T17:56:19.198Z,31.82
2018-07-02T17:58:47.935Z,31.60
2018-07-02T18:01:16.718Z,32.33
2018-07-02T18:03:45.475Z,32.41
2018-07-02T18:06:14.225Z,31.76
2018-07-02T18:08:42.969Z,32.51
2018-07-02T18:11:11.653Z,32.28
2018-07-02T18:13:40.289Z,32.64
2018-07-02T18:16:09.042Z,32.54
2018-07-02T18:18:37.713Z,32.36
2018-07-02T18:21:06.583Z,32.80
2018-07-02T18:23:35.621Z,33.26
2018-07-02T18:26:05.956Z,33.83
2018-07-02T18:28:35.205Z,33.40
2018-07-02T18:31:05.031Z,33.65
2018-07-02T18:33:34.202Z,33.79
2018-07-02T18:36:03.134Z,34.21
2018-07-02T18:38:32.073Z,33.82
2018-07-02T18:41:00.707Z,34.08
2018-07-02T18:43:29.318Z,34.58
2018-07-02T18:45:58.161Z,35.00
2018-07-02T18:48:27.116Z,34.65
2018-07-02T18:50:56.426Z,34.91
2018-07-02T18:53:25.204Z,34.54
2018-07-02T18:55:53.831Z,34.64
2018-07-02T18:58:22.607Z,35.55
2018-07-02T19:00:51.309Z,35.18
2018-07-02T19:03:20.118Z,35.07
2018-07-02T19:05:48.975Z,35.42
2018-07-02T19:08:17.618Z,35.36
2018-07-02T19:10:46.348Z,35.72
2018-07-02T19:13:15.054Z,35.45
2018-07-02T19:15:43.757Z,35.83
2018-07-02T19:18:12.539Z,35.92
2018-07-02T19:20:41.200Z,36.07
2018-07-02T19:23:09.876Z,36.64
2018-07-02T19:25:38.490Z,37.02
2018-07-02T19:28:07.732Z,36.85
2018-07-02T19:30:37.133Z,36.61
2018-07-02T19:33:06.544Z,37.22
2018-07-02T19:35:35.744Z,37.58
2018-07-02T19:38:04.805Z,37.27
2018-07-02T19:40:33.666Z,37.87
2018-07-02T19:43:02.474Z,37.93
2018-07-02T19:45:31.230Z,38.06
2018-07-02T19:47:59.877Z,38.72
2018-07-02T19:50:28.546Z,39.46
2018-07-02T19:52:57.162Z,39.57
2018-07-02T19:55:27.079Z,40.14
2018-07-02T19:57:55.992Z,40.74
2018-07-02T20:00:25.882Z,41.24
2018-07-02T20:02:55.159Z,41.32
2018-07-02T20:05:26.115Z,41.27
2018-07-02T20:07:55.350Z,42.22
2018-07-02T20:10:24.154Z,42.24
2018-07-02T20:12:52.768Z,42.32
2018-07-02T20:15:21.778Z,41.79
2018-07-02T20:17:50.666Z,42.19
2018-07-02T20:20:19.843Z,42.50
2018-07-02T20:22:48.856Z,42.77
2018-07-02T20:25:17.958Z,44.00
2018-07-02T20:27:46.769Z,44.52
2018-07-02T20:30:15.576Z,45.99
2018-07-02T20:32:44.253Z,44.94
2018-07-02T20:35:12.894Z,44.98
2018-07-02T20:37:41.609Z,45.46
2018-07-02T20:40:11.131Z,45.71
2018-07-02T20:42:40.473Z,46.27
2018-07-02T20:45:09.912Z,46.22
2018-07-02T20:47:39.568Z,46.05
2018-07-02T20:50:08.501Z,46.25
2018-07-02T20:52:37.762Z,46.42
2018-07-02T20:55:06.741Z,46.20
2018-07-02T20:57:35.461Z,46.88
2018-07-02T21:00:05.068Z,47.50
2018-07-02T21:02:33.830Z,47.90
2018-07-02T21:05:02.467Z,49.08
2018-07-02T21:07:31.689Z,48.44
2018-07-02T21:10:00.571Z,47.98
2018-07-02T21:12:29.347Z,48.49
2018-07-02T21:14:58.206Z,48.63
2018-07-02T21:17:26.880Z,48.45
2018-07-02T21:19:55.592Z,48.58
2018-07-02T21:22:24.354Z,48.94
2018-07-02T21:24:53.043Z,49.18
2018-07-02T21:27:22.567Z,49.85
2018-07-02T21:29:51.468Z,48.79
2018-07-02T21:32:20.833Z,49.53
2018-07-02T21:34:49.502Z,50.92
2018-07-02T21:37:18.221Z,50.91
2018-07-02T21:39:46.822Z,50.39
2018-07-02T21:42:15.755Z,50.38
2018-07-02T21:44:44.519Z,50.31
2018-07-02T21:47:14.517Z,50.44
2018-07-02T21:49:44.514Z,52.02
2018-07-02T21:52:13.525Z,51.00
2018-07-02T21:54:42.352Z,51.66
2018-07-02T21:57:11.569Z,51.51
2018-07-02T21:59:40.350Z,51.51
2018-07-02T22:02:09.691Z,51.45
2018-07-02T22:04:38.373Z,51.62
2018-07-02T22:07:07.101Z,51.75
2018-07-02T22:09:35.937Z,52.03
2018-07-02T22:12:04.747Z,52.28
2018-07-02T22:14:33.579Z,52.41
2018-07-02T22:17:02.294Z,53.97
2018-07-02T22:19:30.942Z,52.79
2018-07-02T22:21:59.561Z,53.14
2018-07-02T22:24:28.263Z,53.24
2018-07-02T22:26:56.940Z,53.58
2018-07-02T22:29:25.645Z,52.86
2018-07-02T22:31:54.357Z,53.50
2018-07-02T22:34:23.035Z,53.49
2018-07-02T22:36:51.796Z,53.55
2018-07-02T22:39:20.523Z,54.19
2018-07-02T22:41:49.262Z,54.20
2018-07-02T22:44:17.854Z,54.76
2018-07-02T22:46:46.509Z,55.24
2018-07-02T22:49:15.206Z,56.01
2018-07-02T22:51:43.839Z,54.36
2018-07-02T22:54:12.657Z,54.46
2018-07-02T22:56:41.305Z,54.69
2018-07-02T22:59:09.947Z,54.76
2018-07-02T23:01:38.701Z,55.89
2018-07-02T23:04:07.528Z,55.34
2018-07-02T23:06:36.240Z,55.40
2018-07-02T23:09:07.002Z,56.16
2018-07-02T23:11:35.750Z,55.66
2018-07-02T23:14:04.575Z,56.02
2018-07-02T23:16:33.287Z,56.31
2018-07-02T23:19:02.009Z,56.09
2018-07-02T23:21:30.687Z,56.67
2018-07-02T23:23:59.396Z,56.00
2018-07-02T23:26:28.136Z,56.40
2018-07-02T23:28:56.849Z,55.83
2018-07-02T23:31:25.625Z,55.46
2018-07-02T23:33:54.372Z,56.82
2018-07-02T23:36:22.987Z,58.13
2018-07-02T23:38:51.602Z,56.86
2018-07-02T23:41:20.551Z,56.42
2018-07-02T23:43:49.237Z,56.73
2018-07-02T23:46:17.871Z,56.12
2018-07-02T23:48:46.477Z,56.17
2018-07-02T23:51:15.087Z,56.20
2018-07-02T23:53:43.711Z,57.62
2018-07-02T23:56:12.375Z,55.90
2018-07-02T23:58:40.974Z,56.10
